sensor_id;sensor_type;location;lat;lon;timestamp;P1;durP1;ratioP1;P2;durP2;ratioP2
9559;SDS011;4818;50.860;4.648;2022-09-03T00:04:55;1.13;;;0.30;;
9559;SDS011;4818;50.860;4.648;2022-09-03T00:07:29;2.47;;;0.60;;
9559;SDS011;4818;50.860;4.648;2022-09-03T00:09:59;2.70;;;0.50;;
9559;SDS011;4818;50.860;4.648;2022-09-03T00:12:27;0.65;;;0.30;;
9559;SDS011;4818;50.860;4.648;2022-09-03T00:14:56;0.90;;;0.43;;
9559;SDS011;4818;50.860;4.648;2022-09-03T00:20:02;1.67;;;0.45;;
9559;SDS011;4818;50.860;4.648;2022-09-03T00:22:34;1.40;;;0.30;;
9559;SDS011;4818;50.860;4.648;2022-09-03T00:25:03;1.67;;;0.70;;
9559;SDS011;4818;50.860;4.648;2022-09-03T00:27:31;1.08;;;0.35;;
9559;SDS011;4818;50.860;4.648;2022-09-03T00:29:59;1.17;;;0.30;;
9559;SDS011;4818;50.860;4.648;2022-09-03T00:35:07;0.73;;;0.38;;
9559;SDS011;4818;50.860;4.648;2022-09-03T00:37:35;0.93;;;0.40;;
9559;SDS011;4818;50.860;4.648;2022-09-03T00:40:02;1.48;;;0.30;;
9559;SDS011;4818;50.860;4.648;2022-09-03T00:52:49;1.38;;;0.30;;
9559;SDS011;4818;50.860;4.648;2022-09-03T00:55:30;1.05;;;0.38;;
9559;SDS011;4818;50.860;4.648;2022-09-03T01:00:28;3.20;;;0.40;;
9559;SDS011;4818;50.860;4.648;2022-09-03T01:10:45;3.10;;;0.30;;
9559;SDS011;4818;50.860;4.648;2022-09-03T01:13:28;0.63;;;0.30;;
9559;SDS011;4818;50.860;4.648;2022-09-03T01:20:54;4.20;;;0.40;;
9559;SDS011;4818;50.860;4.648;2022-09-03T01:33:39;2.53;;;0.30;;
9559;SDS011;4818;50.860;4.648;2022-09-03T01:36:25;1.33;;;0.57;;
9559;SDS011;4818;50.860;4.648;2022-09-03T01:39:06;2.13;;;0.35;;
9559;SDS011;4818;50.860;4.648;2022-09-03T01:41:46;2.83;;;0.40;;
9559;SDS011;4818;50.860;4.648;2022-09-03T01:52:55;1.83;;;0.40;;
9559;SDS011;4818;50.860;4.648;2022-09-03T01:55:28;0.80;;;0.30;;
9559;SDS011;4818;50.860;4.648;2022-09-03T01:57:57;1.40;;;0.30;;
9559;SDS011;4818;50.860;4.648;2022-09-03T02:02:53;3.78;;;0.50;;
9559;SDS011;4818;50.860;4.648;2022-09-03T02:05:20;1.33;;;0.40;;
9559;SDS011;4818;50.860;4.648;2022-09-03T02:10:37;2.58;;;0.40;;
9559;SDS011;4818;50.860;4.648;2022-09-03T02:13:13;0.88;;;0.30;;
9559;SDS011;4818;50.860;4.648;2022-09-03T02:15:42;0.70;;;0.30;;
9559;SDS011;4818;50.860;4.648;2022-09-03T02:18:12;0.60;;;0.30;;
9559;SDS011;4818;50.860;4.648;2022-09-03T02:20:40;2.38;;;0.52;;
9559;SDS011;4818;50.860;4.648;2022-09-03T02:23:06;0.73;;;0.40;;
9559;SDS011;4818;50.860;4.648;2022-09-03T02:25:35;1.80;;;0.77;;
9559;SDS011;4818;50.860;4.648;2022-09-03T02:28:03;1.65;;;0.40;;
9559;SDS011;4818;50.860;4.648;2022-09-03T02:30:30;2.05;;;0.32;;
9559;SDS011;4818;50.860;4.648;2022-09-03T02:32:56;0.80;;;0.30;;
9559;SDS011;4818;50.860;4.648;2022-09-03T02:35:23;1.52;;;0.40;;
9559;SDS011;4818;50.860;4.648;2022-09-03T02:37:49;1.10;;;0.40;;
9559;SDS011;4818;50.860;4.648;2022-09-03T02:40:15;1.23;;;0.30;;
9559;SDS011;4818;50.860;4.648;2022-09-03T02:42:42;3.42;;;0.38;;
9559;SDS011;4818;50.860;4.648;2022-09-03T02:45:12;1.73;;;0.40;;
9559;SDS011;4818;50.860;4.648;2022-09-03T02:47:42;0.70;;;0.30;;
9559;SDS011;4818;50.860;4.648;2022-09-03T02:50:09;8.15;;;1.30;;
9559;SDS011;4818;50.860;4.648;2022-09-03T02:52:36;1.83;;;0.40;;
9559;SDS011;4818;50.860;4.648;2022-09-03T02:55:02;1.77;;;0.38;;
9559;SDS011;4818;50.860;4.648;2022-09-03T02:57:28;0.80;;;0.30;;
9559;SDS011;4818;50.860;4.648;2022-09-03T02:59:54;0.95;;;0.40;;
9559;SDS011;4818;50.860;4.648;2022-09-03T03:02:20;2.47;;;0.43;;
9559;SDS011;4818;50.860;4.648;2022-09-03T03:04:47;3.15;;;0.65;;
9559;SDS011;4818;50.860;4.648;2022-09-03T03:07:13;3.55;;;0.40;;
9559;SDS011;4818;50.860;4.648;2022-09-03T03:09:39;1.38;;;0.35;;
9559;SDS011;4818;50.860;4.648;2022-09-03T03:12:05;1.10;;;0.30;;
9559;SDS011;4818;50.860;4.648;2022-09-03T03:14:33;2.90;;;0.90;;
9559;SDS011;4818;50.860;4.648;2022-09-03T03:16:59;1.77;;;0.60;;
9559;SDS011;4818;50.860;4.648;2022-09-03T03:19:25;2.50;;;0.30;;
9559;SDS011;4818;50.860;4.648;2022-09-03T03:21:51;0.82;;;0.30;;
9559;SDS011;4818;50.860;4.648;2022-09-03T03:24:18;1.83;;;0.30;;
9559;SDS011;4818;50.860;4.648;2022-09-03T03:26:44;1.42;;;0.35;;
9559;SDS011;4818;50.860;4.648;2022-09-03T03:29:13;1.23;;;0.30;;
9559;SDS011;4818;50.860;4.648;2022-09-03T03:31:40;2.35;;;0.30;;
9559;SDS011;4818;50.860;4.648;2022-09-03T03:34:06;0.52;;;0.30;;
9559;SDS011;4818;50.860;4.648;2022-09-03T03:36:32;5.20;;;0.32;;
9559;SDS011;4818;50.860;4.648;2022-09-03T03:38:59;4.50;;;0.40;;
9559;SDS011;4818;50.860;4.648;2022-09-03T03:41:29;2.10;;;0.40;;
9559;SDS011;4818;50.860;4.648;2022-09-03T03:43:57;2.75;;;0.30;;
9559;SDS011;4818;50.860;4.648;2022-09-03T03:46:24;1.05;;;0.40;;
9559;SDS011;4818;50.860;4.648;2022-09-03T03:48:53;1.15;;;0.30;;
9559;SDS011;4818;50.860;4.648;2022-09-03T03:51:19;0.85;;;0.30;;
9559;SDS011;4818;50.860;4.648;2022-09-03T03:53:45;1.33;;;0.40;;
9559;SDS011;4818;50.860;4.648;2022-09-03T03:56:13;2.45;;;0.52;;
9559;SDS011;4818;50.860;4.648;2022-09-03T03:58:41;1.73;;;0.30;;
9559;SDS011;4818;50.860;4.648;2022-09-03T04:03:37;1.52;;;0.38;;
9559;SDS011;4818;50.860;4.648;2022-09-03T04:06:03;1.75;;;0.40;;
9559;SDS011;4818;50.860;4.648;2022-09-03T04:08:32;1.67;;;0.40;;
9559;SDS011;4818;50.860;4.648;2022-09-03T04:11:00;2.27;;;0.30;;
9559;SDS011;4818;50.860;4.648;2022-09-03T04:13:29;1.55;;;0.30;;
9559;SDS011;4818;50.860;4.648;2022-09-03T04:18:22;1.10;;;0.43;;
9559;SDS011;4818;50.860;4.648;2022-09-03T04:20:48;1.00;;;0.32;;
9559;SDS011;4818;50.860;4.648;2022-09-03T04:23:14;1.20;;;0.40;;
9559;SDS011;4818;50.860;4.648;2022-09-03T04:25:41;0.82;;;0.40;;
9559;SDS011;4818;50.860;4.648;2022-09-03T04:28:09;1.48;;;0.40;;
9559;SDS011;4818;50.860;4.648;2022-09-03T04:30:36;1.08;;;0.40;;
9559;SDS011;4818;50.860;4.648;2022-09-03T04:33:02;1.48;;;0.50;;
9559;SDS011;4818;50.860;4.648;2022-09-03T04:35:28;2.33;;;0.77;;
9559;SDS011;4818;50.860;4.648;2022-09-03T04:37:56;2.58;;;0.40;;
9559;SDS011;4818;50.860;4.648;2022-09-03T04:40:22;1.17;;;0.40;;
9559;SDS011;4818;50.860;4.648;2022-09-03T04:42:49;1.52;;;0.50;;
9559;SDS011;4818;50.860;4.648;2022-09-03T04:45:15;1.67;;;0.50;;
9559;SDS011;4818;50.860;4.648;2022-09-03T04:47:44;1.27;;;0.47;;
9559;SDS011;4818;50.860;4.648;2022-09-03T04:50:20;3.05;;;0.70;;
9559;SDS011;4818;50.860;4.648;2022-09-03T04:52:47;2.35;;;1.23;;
9559;SDS011;4818;50.860;4.648;2022-09-03T04:55:13;0.90;;;0.50;;
9559;SDS011;4818;50.860;4.648;2022-09-03T04:57:39;4.82;;;0.60;;
9559;SDS011;4818;50.860;4.648;2022-09-03T05:00:07;2.00;;;0.52;;
9559;SDS011;4818;50.860;4.648;2022-09-03T05:02:36;2.00;;;0.70;;
9559;SDS011;4818;50.860;4.648;2022-09-03T05:05:02;1.73;;;0.60;;
9559;SDS011;4818;50.860;4.648;2022-09-03T05:07:29;1.40;;;0.63;;
9559;SDS011;4818;50.860;4.648;2022-09-03T05:10:04;3.13;;;0.90;;
9559;SDS011;4818;50.860;4.648;2022-09-03T05:12:31;12.77;;;1.30;;
9559;SDS011;4818;50.860;4.648;2022-09-03T05:14:57;4.25;;;1.20;;
9559;SDS011;4818;50.860;4.648;2022-09-03T05:17:24;6.00;;;1.50;;
9559;SDS011;4818;50.860;4.648;2022-09-03T05:19:50;4.38;;;1.17;;
9559;SDS011;4818;50.860;4.648;2022-09-03T05:22:17;1.55;;;0.60;;
9559;SDS011;4818;50.860;4.648;2022-09-03T05:24:47;1.80;;;0.93;;
9559;SDS011;4818;50.860;4.648;2022-09-03T05:27:16;4.10;;;0.95;;
9559;SDS011;4818;50.860;4.648;2022-09-03T05:29:42;1.13;;;0.85;;
9559;SDS011;4818;50.860;4.648;2022-09-03T05:32:09;1.73;;;0.73;;
9559;SDS011;4818;50.860;4.648;2022-09-03T05:34:36;2.85;;;0.50;;
9559;SDS011;4818;50.860;4.648;2022-09-03T05:37:02;1.75;;;0.65;;
9559;SDS011;4818;50.860;4.648;2022-09-03T05:39:29;3.00;;;0.47;;
9559;SDS011;4818;50.860;4.648;2022-09-03T05:41:55;1.42;;;0.77;;
9559;SDS011;4818;50.860;4.648;2022-09-03T05:44:21;2.38;;;0.70;;
9559;SDS011;4818;50.860;4.648;2022-09-03T05:46:47;1.30;;;0.75;;
9559;SDS011;4818;50.860;4.648;2022-09-03T05:49:15;0.80;;;0.50;;
9559;SDS011;4818;50.860;4.648;2022-09-03T05:51:41;1.95;;;0.60;;
9559;SDS011;4818;50.860;4.648;2022-09-03T05:54:09;2.95;;;0.68;;
9559;SDS011;4818;50.860;4.648;2022-09-03T05:56:36;1.17;;;0.60;;
9559;SDS011;4818;50.860;4.648;2022-09-03T05:59:05;4.32;;;0.70;;
9559;SDS011;4818;50.860;4.648;2022-09-03T06:01:32;2.15;;;0.60;;
9559;SDS011;4818;50.860;4.648;2022-09-03T06:04:09;1.80;;;0.50;;
9559;SDS011;4818;50.860;4.648;2022-09-03T06:06:36;2.30;;;0.60;;
9559;SDS011;4818;50.860;4.648;2022-09-03T06:09:03;1.27;;;0.50;;
9559;SDS011;4818;50.860;4.648;2022-09-03T06:11:30;3.35;;;0.52;;
9559;SDS011;4818;50.860;4.648;2022-09-03T06:13:57;2.10;;;0.50;;
9559;SDS011;4818;50.860;4.648;2022-09-03T06:16:29;2.63;;;0.50;;
9559;SDS011;4818;50.860;4.648;2022-09-03T06:18:55;2.00;;;0.60;;
9559;SDS011;4818;50.860;4.648;2022-09-03T06:21:22;2.60;;;0.38;;
9559;SDS011;4818;50.860;4.648;2022-09-03T06:23:49;1.73;;;0.60;;
9559;SDS011;4818;50.860;4.648;2022-09-03T06:26:20;1.52;;;0.65;;
9559;SDS011;4818;50.860;4.648;2022-09-03T06:28:47;3.15;;;0.60;;
9559;SDS011;4818;50.860;4.648;2022-09-03T06:31:17;3.28;;;0.50;;
9559;SDS011;4818;50.860;4.648;2022-09-03T06:33:44;2.67;;;0.40;;
9559;SDS011;4818;50.860;4.648;2022-09-03T06:36:13;0.93;;;0.40;;
9559;SDS011;4818;50.860;4.648;2022-09-03T06:38:40;1.17;;;0.50;;
9559;SDS011;4818;50.860;4.648;2022-09-03T06:41:07;1.00;;;0.40;;
9559;SDS011;4818;50.860;4.648;2022-09-03T06:43:38;1.45;;;0.47;;
9559;SDS011;4818;50.860;4.648;2022-09-03T06:46:15;4.82;;;0.52;;
9559;SDS011;4818;50.860;4.648;2022-09-03T06:48:42;3.05;;;0.50;;
9559;SDS011;4818;50.860;4.648;2022-09-03T06:51:09;2.35;;;0.50;;
9559;SDS011;4818;50.860;4.648;2022-09-03T06:53:37;0.88;;;0.32;;
9559;SDS011;4818;50.860;4.648;2022-09-03T06:56:04;1.85;;;0.30;;
9559;SDS011;4818;50.860;4.648;2022-09-03T06:58:32;3.38;;;0.30;;
9559;SDS011;4818;50.860;4.648;2022-09-03T07:01:03;1.13;;;0.40;;
9559;SDS011;4818;50.860;4.648;2022-09-03T07:03:33;1.42;;;0.43;;
9559;SDS011;4818;50.860;4.648;2022-09-03T07:06:09;1.00;;;0.50;;
9559;SDS011;4818;50.860;4.648;2022-09-03T07:08:36;3.10;;;0.50;;
9559;SDS011;4818;50.860;4.648;2022-09-03T07:11:03;1.45;;;0.80;;
9559;SDS011;4818;50.860;4.648;2022-09-03T07:13:33;0.80;;;0.40;;
9559;SDS011;4818;50.860;4.648;2022-09-03T07:16:06;0.93;;;0.35;;
9559;SDS011;4818;50.860;4.648;2022-09-03T07:18:32;2.60;;;0.40;;
9559;SDS011;4818;50.860;4.648;2022-09-03T07:21:03;1.55;;;0.47;;
9559;SDS011;4818;50.860;4.648;2022-09-03T07:23:30;1.55;;;0.43;;
9559;SDS011;4818;50.860;4.648;2022-09-03T07:25:57;2.15;;;0.40;;
9559;SDS011;4818;50.860;4.648;2022-09-03T07:28:24;3.90;;;0.60;;
9559;SDS011;4818;50.860;4.648;2022-09-03T07:30:50;2.25;;;0.47;;
9559;SDS011;4818;50.860;4.648;2022-09-03T07:33:17;1.02;;;0.40;;
9559;SDS011;4818;50.860;4.648;2022-09-03T07:35:44;2.42;;;0.52;;
9559;SDS011;4818;50.860;4.648;2022-09-03T07:38:10;1.45;;;0.30;;
9559;SDS011;4818;50.860;4.648;2022-09-03T07:40:37;1.25;;;0.40;;
9559;SDS011;4818;50.860;4.648;2022-09-03T07:43:04;2.80;;;0.40;;
9559;SDS011;4818;50.860;4.648;2022-09-03T07:45:30;3.72;;;0.30;;
9559;SDS011;4818;50.860;4.648;2022-09-03T07:47:58;1.60;;;0.40;;
9559;SDS011;4818;50.860;4.648;2022-09-03T07:50:24;2.17;;;0.30;;
9559;SDS011;4818;50.860;4.648;2022-09-03T07:52:56;0.80;;;0.32;;
9559;SDS011;4818;50.860;4.648;2022-09-03T07:55:25;2.78;;;0.40;;
9559;SDS011;4818;50.860;4.648;2022-09-03T07:57:58;1.23;;;0.30;;
9559;SDS011;4818;50.860;4.648;2022-09-03T08:00:24;4.80;;;0.40;;
9559;SDS011;4818;50.860;4.648;2022-09-03T08:02:51;0.40;;;0.30;;
9559;SDS011;4818;50.860;4.648;2022-09-03T08:05:17;1.23;;;0.50;;
9559;SDS011;4818;50.860;4.648;2022-09-03T08:07:47;2.10;;;0.47;;
9559;SDS011;4818;50.860;4.648;2022-09-03T08:10:14;1.70;;;0.40;;
9559;SDS011;4818;50.860;4.648;2022-09-03T08:12:40;2.03;;;0.38;;
9559;SDS011;4818;50.860;4.648;2022-09-03T08:15:07;4.40;;;0.50;;
9559;SDS011;4818;50.860;4.648;2022-09-03T08:17:33;0.73;;;0.40;;
9559;SDS011;4818;50.860;4.648;2022-09-03T08:20:00;1.83;;;0.30;;
9559;SDS011;4818;50.860;4.648;2022-09-03T08:22:26;1.48;;;0.38;;
9559;SDS011;4818;50.860;4.648;2022-09-03T08:24:53;5.07;;;0.38;;
9559;SDS011;4818;50.860;4.648;2022-09-03T08:27:20;1.92;;;0.30;;
9559;SDS011;4818;50.860;4.648;2022-09-03T08:29:49;1.15;;;0.52;;
9559;SDS011;4818;50.860;4.648;2022-09-03T08:32:15;2.28;;;0.40;;
9559;SDS011;4818;50.860;4.648;2022-09-03T08:34:41;2.38;;;0.40;;
9559;SDS011;4818;50.860;4.648;2022-09-03T08:37:08;1.70;;;0.40;;
9559;SDS011;4818;50.860;4.648;2022-09-03T08:39:34;1.92;;;0.30;;
9559;SDS011;4818;50.860;4.648;2022-09-03T08:44:50;5.10;;;0.60;;
9559;SDS011;4818;50.860;4.648;2022-09-03T08:47:36;3.42;;;0.50;;
9559;SDS011;4818;50.860;4.648;2022-09-03T08:52:53;2.50;;;0.50;;
9559;SDS011;4818;50.860;4.648;2022-09-03T08:55:23;1.20;;;0.50;;
9559;SDS011;4818;50.860;4.648;2022-09-03T09:00:17;1.73;;;0.57;;
9559;SDS011;4818;50.860;4.648;2022-09-03T09:05:16;1.92;;;1.00;;
9559;SDS011;4818;50.860;4.648;2022-09-03T09:13:27;1.23;;;0.50;;
9559;SDS011;4818;50.860;4.648;2022-09-03T09:15:39;4.25;;;0.55;;
9559;SDS011;4818;50.860;4.648;2022-09-03T09:18:21;1.50;;;0.50;;
9559;SDS011;4818;50.860;4.648;2022-09-03T09:20:49;3.05;;;0.52;;
9559;SDS011;4818;50.860;4.648;2022-09-03T09:23:24;0.88;;;0.40;;
9559;SDS011;4818;50.860;4.648;2022-09-03T09:25:51;1.85;;;0.75;;
9559;SDS011;4818;50.860;4.648;2022-09-03T09:28:22;3.50;;;0.90;;
9559;SDS011;4818;50.860;4.648;2022-09-03T09:30:50;1.33;;;0.70;;
9559;SDS011;4818;50.860;4.648;2022-09-03T09:33:16;1.80;;;0.80;;
9559;SDS011;4818;50.860;4.648;2022-09-03T09:35:45;2.53;;;0.65;;
9559;SDS011;4818;50.860;4.648;2022-09-03T09:38:11;2.83;;;0.95;;
9559;SDS011;4818;50.860;4.648;2022-09-03T09:40:39;6.07;;;1.02;;
9559;SDS011;4818;50.860;4.648;2022-09-03T09:43:16;4.18;;;0.98;;
9559;SDS011;4818;50.860;4.648;2022-09-03T09:45:45;2.83;;;0.80;;
9559;SDS011;4818;50.860;4.648;2022-09-03T09:48:25;1.73;;;0.70;;
9559;SDS011;4818;50.860;4.648;2022-09-03T09:53:40;1.65;;;0.80;;
9559;SDS011;4818;50.860;4.648;2022-09-03T09:56:06;3.85;;;0.75;;
9559;SDS011;4818;50.860;4.648;2022-09-03T09:58:33;1.27;;;0.70;;
9559;SDS011;4818;50.860;4.648;2022-09-03T10:03:30;3.35;;;1.00;;
9559;SDS011;4818;50.860;4.648;2022-09-03T10:06:03;4.30;;;1.00;;
9559;SDS011;4818;50.860;4.648;2022-09-03T10:08:50;1.27;;;0.63;;
9559;SDS011;4818;50.860;4.648;2022-09-03T10:11:17;1.27;;;0.50;;
9559;SDS011;4818;50.860;4.648;2022-09-03T10:13:44;1.50;;;0.60;;
9559;SDS011;4818;50.860;4.648;2022-09-03T10:16:20;1.20;;;0.60;;
9559;SDS011;4818;50.860;4.648;2022-09-03T10:18:58;2.25;;;0.90;;
9559;SDS011;4818;50.860;4.648;2022-09-03T10:24:00;2.42;;;1.02;;
9559;SDS011;4818;50.860;4.648;2022-09-03T10:26:29;2.53;;;0.80;;
9559;SDS011;4818;50.860;4.648;2022-09-03T10:29:02;3.75;;;0.95;;
9559;SDS011;4818;50.860;4.648;2022-09-03T10:34:08;3.17;;;1.23;;
9559;SDS011;4818;50.860;4.648;2022-09-03T10:36:39;4.80;;;1.05;;
9559;SDS011;4818;50.860;4.648;2022-09-03T10:42:06;1.70;;;0.90;;
9559;SDS011;4818;50.860;4.648;2022-09-03T10:49:50;2.40;;;1.15;;
9559;SDS011;4818;50.860;4.648;2022-09-03T10:52:23;2.50;;;1.00;;
9559;SDS011;4818;50.860;4.648;2022-09-03T10:55:08;3.50;;;1.30;;
9559;SDS011;4818;50.860;4.648;2022-09-03T11:02:43;2.65;;;1.20;;
9559;SDS011;4818;50.860;4.648;2022-09-03T11:05:13;1.88;;;0.93;;
9559;SDS011;4818;50.860;4.648;2022-09-03T11:10:27;3.05;;;1.23;;
9559;SDS011;4818;50.860;4.648;2022-09-03T11:15:24;2.15;;;0.90;;
9559;SDS011;4818;50.860;4.648;2022-09-03T11:20:25;5.32;;;1.60;;
9559;SDS011;4818;50.860;4.648;2022-09-03T11:22:53;3.28;;;1.38;;
9559;SDS011;4818;50.860;4.648;2022-09-03T11:25:25;1.80;;;1.13;;
9559;SDS011;4818;50.860;4.648;2022-09-03T11:30:28;1.83;;;1.17;;
9559;SDS011;4818;50.860;4.648;2022-09-03T11:33:00;3.42;;;0.73;;
9559;SDS011;4818;50.860;4.648;2022-09-03T11:38:04;2.38;;;0.82;;
9559;SDS011;4818;50.860;4.648;2022-09-03T11:40:33;1.15;;;0.80;;
9559;SDS011;4818;50.860;4.648;2022-09-03T11:43:33;1.17;;;0.80;;
9559;SDS011;4818;50.860;4.648;2022-09-03T11:48:33;3.80;;;1.13;;
9559;SDS011;4818;50.860;4.648;2022-09-03T11:56:26;1.55;;;0.82;;
9559;SDS011;4818;50.860;4.648;2022-09-03T11:58:58;2.15;;;1.55;;
9559;SDS011;4818;50.860;4.648;2022-09-03T12:01:25;3.78;;;1.10;;
9559;SDS011;4818;50.860;4.648;2022-09-03T12:03:55;2.10;;;0.93;;
9559;SDS011;4818;50.860;4.648;2022-09-03T12:06:37;2.45;;;0.90;;
9559;SDS011;4818;50.860;4.648;2022-09-03T12:19:17;1.60;;;1.00;;
9559;SDS011;4818;50.860;4.648;2022-09-03T12:21:49;3.53;;;1.40;;
9559;SDS011;4818;50.860;4.648;2022-09-03T12:24:28;2.05;;;1.35;;
9559;SDS011;4818;50.860;4.648;2022-09-03T12:26:56;2.88;;;1.02;;
9559;SDS011;4818;50.860;4.648;2022-09-03T12:29:25;1.42;;;1.15;;
9559;SDS011;4818;50.860;4.648;2022-09-03T12:31:52;2.47;;;1.63;;
9559;SDS011;4818;50.860;4.648;2022-09-03T12:34:20;4.43;;;1.25;;
9559;SDS011;4818;50.860;4.648;2022-09-03T12:36:48;2.22;;;1.10;;
9559;SDS011;4818;50.860;4.648;2022-09-03T12:39:19;2.10;;;1.23;;
9559;SDS011;4818;50.860;4.648;2022-09-03T12:42:01;3.42;;;1.42;;
9559;SDS011;4818;50.860;4.648;2022-09-03T12:44:46;2.97;;;1.20;;
9559;SDS011;4818;50.860;4.648;2022-09-03T12:47:14;2.92;;;1.15;;
9559;SDS011;4818;50.860;4.648;2022-09-03T12:49:46;3.55;;;1.30;;
9559;SDS011;4818;50.860;4.648;2022-09-03T12:52:19;1.10;;;0.77;;
9559;SDS011;4818;50.860;4.648;2022-09-03T12:57:36;3.17;;;0.90;;
9559;SDS011;4818;50.860;4.648;2022-09-03T13:00:05;1.45;;;0.93;;
9559;SDS011;4818;50.860;4.648;2022-09-03T13:02:52;1.80;;;0.85;;
9559;SDS011;4818;50.860;4.648;2022-09-03T13:05:25;1.23;;;0.70;;
9559;SDS011;4818;50.860;4.648;2022-09-03T13:07:56;1.50;;;1.10;;
9559;SDS011;4818;50.860;4.648;2022-09-03T13:10:28;2.47;;;0.80;;
9559;SDS011;4818;50.860;4.648;2022-09-03T13:12:59;2.22;;;1.10;;
9559;SDS011;4818;50.860;4.648;2022-09-03T13:15:26;2.80;;;1.63;;
9559;SDS011;4818;50.860;4.648;2022-09-03T13:20:41;2.58;;;1.00;;
9559;SDS011;4818;50.860;4.648;2022-09-03T13:23:28;4.65;;;1.20;;
9559;SDS011;4818;50.860;4.648;2022-09-03T13:36:51;4.57;;;1.13;;
9559;SDS011;4818;50.860;4.648;2022-09-03T13:39:20;1.83;;;0.88;;
9559;SDS011;4818;50.860;4.648;2022-09-03T13:41:51;2.42;;;1.10;;
9559;SDS011;4818;50.860;4.648;2022-09-03T13:47:00;2.58;;;0.90;;
9559;SDS011;4818;50.860;4.648;2022-09-03T13:49:33;1.80;;;1.15;;
9559;SDS011;4818;50.860;4.648;2022-09-03T13:52:23;1.55;;;0.90;;
9559;SDS011;4818;50.860;4.648;2022-09-03T14:00:08;4.63;;;1.25;;
9559;SDS011;4818;50.860;4.648;2022-09-03T14:07:45;1.27;;;1.15;;
9559;SDS011;4818;50.860;4.648;2022-09-03T14:12:43;1.60;;;1.00;;
9559;SDS011;4818;50.860;4.648;2022-09-03T14:15:16;1.25;;;0.98;;
9559;SDS011;4818;50.860;4.648;2022-09-03T14:18:08;2.85;;;0.90;;
9559;SDS011;4818;50.860;4.648;2022-09-03T14:20:43;1.63;;;1.10;;
9559;SDS011;4818;50.860;4.648;2022-09-03T14:23:21;1.20;;;0.90;;
9559;SDS011;4818;50.860;4.648;2022-09-03T14:25:51;1.60;;;0.90;;
9559;SDS011;4818;50.860;4.648;2022-09-03T14:28:24;1.15;;;0.70;;
9559;SDS011;4818;50.860;4.648;2022-09-03T14:40:45;2.92;;;1.23;;
9559;SDS011;4818;50.860;4.648;2022-09-03T14:43:31;2.10;;;0.95;;
9559;SDS011;4818;50.860;4.648;2022-09-03T14:59:43;2.17;;;0.80;;
9559;SDS011;4818;50.860;4.648;2022-09-03T15:02:16;3.92;;;1.27;;
9559;SDS011;4818;50.860;4.648;2022-09-03T15:07:32;1.95;;;0.95;;
9559;SDS011;4818;50.860;4.648;2022-09-03T15:12:37;4.45;;;1.10;;
9559;SDS011;4818;50.860;4.648;2022-09-03T15:15:17;2.13;;;0.60;;
9559;SDS011;4818;50.860;4.648;2022-09-03T15:20:31;1.65;;;1.02;;
9559;SDS011;4818;50.860;4.648;2022-09-03T15:30:44;2.40;;;0.75;;
9559;SDS011;4818;50.860;4.648;2022-09-03T15:36:10;1.50;;;0.50;;
9559;SDS011;4818;50.860;4.648;2022-09-03T15:38:43;1.20;;;0.80;;
9559;SDS011;4818;50.860;4.648;2022-09-03T15:41:20;1.30;;;0.80;;
9559;SDS011;4818;50.860;4.648;2022-09-03T15:43:48;3.53;;;0.80;;
9559;SDS011;4818;50.860;4.648;2022-09-03T15:49:09;1.35;;;0.70;;
9559;SDS011;4818;50.860;4.648;2022-09-03T15:51:48;2.13;;;0.73;;
9559;SDS011;4818;50.860;4.648;2022-09-03T15:57:12;2.30;;;0.65;;
9559;SDS011;4818;50.860;4.648;2022-09-03T16:02:17;1.15;;;0.80;;
9559;SDS011;4818;50.860;4.648;2022-09-03T16:15:00;2.20;;;0.77;;
9559;SDS011;4818;50.860;4.648;2022-09-03T16:22:31;1.52;;;0.55;;
9559;SDS011;4818;50.860;4.648;2022-09-03T16:25:00;5.85;;;1.05;;
9559;SDS011;4818;50.860;4.648;2022-09-03T16:30:09;3.13;;;0.90;;
9559;SDS011;4818;50.860;4.648;2022-09-03T16:35:06;2.50;;;0.68;;
9559;SDS011;4818;50.860;4.648;2022-09-03T16:40:17;2.45;;;0.70;;
9559;SDS011;4818;50.860;4.648;2022-09-03T16:42:47;1.75;;;0.63;;
9559;SDS011;4818;50.860;4.648;2022-09-03T17:00:41;1.67;;;0.70;;
9559;SDS011;4818;50.860;4.648;2022-09-03T17:05:54;3.00;;;0.90;;
9559;SDS011;4818;50.860;4.648;2022-09-03T17:08:27;1.90;;;0.80;;
9559;SDS011;4818;50.860;4.648;2022-09-03T17:14:19;2.28;;;0.50;;
9559;SDS011;4818;50.860;4.648;2022-09-03T17:37:48;1.80;;;0.60;;
9559;SDS011;4818;50.860;4.648;2022-09-03T17:43:17;2.25;;;0.70;;
9559;SDS011;4818;50.860;4.648;2022-09-03T17:46:30;1.60;;;0.88;;
9559;SDS011;4818;50.860;4.648;2022-09-03T17:51:03;2.40;;;0.75;;
9559;SDS011;4818;50.860;4.648;2022-09-03T17:53:36;1.65;;;0.85;;
9559;SDS011;4818;50.860;4.648;2022-09-03T17:56:07;2.50;;;0.70;;
9559;SDS011;4818;50.860;4.648;2022-09-03T17:59:02;4.88;;;0.80;;
9559;SDS011;4818;50.860;4.648;2022-09-03T18:01:26;1.13;;;0.60;;
9559;SDS011;4818;50.860;4.648;2022-09-03T18:03:54;4.22;;;0.75;;
9559;SDS011;4818;50.860;4.648;2022-09-03T18:08:50;1.92;;;0.80;;
9559;SDS011;4818;50.860;4.648;2022-09-03T18:11:20;4.30;;;0.90;;
9559;SDS011;4818;50.860;4.648;2022-09-03T18:14:00;2.40;;;0.50;;
9559;SDS011;4818;50.860;4.648;2022-09-03T18:16:34;2.17;;;0.63;;
9559;SDS011;4818;50.860;4.648;2022-09-03T18:19:13;2.47;;;0.85;;
9559;SDS011;4818;50.860;4.648;2022-09-03T18:21:53;1.95;;;0.50;;
9559;SDS011;4818;50.860;4.648;2022-09-03T18:24:42;1.38;;;0.60;;
9559;SDS011;4818;50.860;4.648;2022-09-03T18:27:50;2.05;;;0.85;;
9559;SDS011;4818;50.860;4.648;2022-09-03T18:30:33;2.25;;;0.70;;
9559;SDS011;4818;50.860;4.648;2022-09-03T18:33:20;1.63;;;0.40;;
9559;SDS011;4818;50.860;4.648;2022-09-03T18:36:08;1.15;;;0.50;;
9559;SDS011;4818;50.860;4.648;2022-09-03T18:39:00;1.65;;;0.50;;
9559;SDS011;4818;50.860;4.648;2022-09-03T18:42:21;1.27;;;0.40;;
9559;SDS011;4818;50.860;4.648;2022-09-03T18:50:47;2.85;;;0.35;;
9559;SDS011;4818;50.860;4.648;2022-09-03T18:53:50;1.90;;;0.40;;
9559;SDS011;4818;50.860;4.648;2022-09-03T18:56:50;1.40;;;0.65;;
9559;SDS011;4818;50.860;4.648;2022-09-03T19:02:36;1.30;;;0.40;;
9559;SDS011;4818;50.860;4.648;2022-09-03T19:05:24;1.20;;;0.30;;
9559;SDS011;4818;50.860;4.648;2022-09-03T19:13:49;1.10;;;0.40;;
9559;SDS011;4818;50.860;4.648;2022-09-03T19:22:41;1.42;;;0.40;;
9559;SDS011;4818;50.860;4.648;2022-09-03T19:25:26;1.27;;;0.35;;
9559;SDS011;4818;50.860;4.648;2022-09-03T19:36:55;1.52;;;0.30;;
9559;SDS011;4818;50.860;4.648;2022-09-03T19:45:53;1.13;;;0.40;;
9559;SDS011;4818;50.860;4.648;2022-09-03T19:51:31;1.73;;;0.40;;
9559;SDS011;4818;50.860;4.648;2022-09-03T19:54:20;2.00;;;0.40;;
9559;SDS011;4818;50.860;4.648;2022-09-03T19:57:08;2.15;;;0.40;;
9559;SDS011;4818;50.860;4.648;2022-09-03T19:59:55;1.63;;;0.40;;
9559;SDS011;4818;50.860;4.648;2022-09-03T20:02:40;2.58;;;0.40;;
9559;SDS011;4818;50.860;4.648;2022-09-03T20:05:25;1.30;;;0.63;;
9559;SDS011;4818;50.860;4.648;2022-09-03T20:08:12;2.50;;;0.50;;
9559;SDS011;4818;50.860;4.648;2022-09-03T20:10:57;3.15;;;0.40;;
9559;SDS011;4818;50.860;4.648;2022-09-03T20:13:24;2.65;;;0.47;;
9559;SDS011;4818;50.860;4.648;2022-09-03T20:18:33;8.25;;;0.88;;
9559;SDS011;4818;50.860;4.648;2022-09-03T20:42:27;1.70;;;0.60;;
9559;SDS011;4818;50.860;4.648;2022-09-03T20:47:39;3.03;;;0.82;;
9559;SDS011;4818;50.860;4.648;2022-09-03T20:53:03;2.90;;;0.80;;
9559;SDS011;4818;50.860;4.648;2022-09-03T20:55:42;1.08;;;0.50;;
9559;SDS011;4818;50.860;4.648;2022-09-03T21:00:41;1.35;;;0.65;;
9559;SDS011;4818;50.860;4.648;2022-09-03T21:03:20;0.90;;;0.50;;
9559;SDS011;4818;50.860;4.648;2022-09-03T21:11:02;3.58;;;0.95;;
